createdAt,value
2022-12-08T00:00:20.295Z,51.259548
2022-12-08T00:01:20.266Z,51.259480
2022-12-08T00:02:20.378Z,51.259560
2022-12-08T00:03:20.458Z,51.259613
2022-12-08T00:04:20.263Z,51.259560
2022-12-08T00:05:20.253Z,51.259480
2022-12-08T00:06:20.227Z,51.259552
2022-12-08T00:07:20.219Z,51.259548
2022-12-08T00:08:20.262Z,51.259521
2022-12-08T00:09:20.216Z,51.259518
2022-12-08T00:10:47.903Z,51.259605
2022-12-08T00:11:22.191Z,51.259689
2022-12-08T00:12:46.584Z,51.259556
2022-12-08T00:13:20.163Z,51.259617
2022-12-08T00:14:20.180Z,51.259472
2022-12-08T00:15:20.145Z,51.259472
2022-12-08T00:16:20.224Z,51.259418
2022-12-08T00:17:20.132Z,51.259590
2022-12-08T00:18:20.140Z,51.259491
2022-12-08T00:19:20.130Z,51.259514
2022-12-08T00:20:20.107Z,51.259434
2022-12-08T00:21:20.100Z,51.259567
2022-12-08T00:22:20.086Z,51.259426
2022-12-08T00:23:20.083Z,51.259354
2022-12-08T00:24:20.118Z,51.259323
2022-12-08T00:25:20.058Z,51.259411
2022-12-08T00:26:20.052Z,51.259483
2022-12-08T00:27:20.043Z,51.259533
2022-12-08T00:28:20.026Z,51.259598
2022-12-08T00:29:20.043Z,51.259537
2022-12-08T00:30:20.039Z,51.259556
2022-12-08T00:31:20.052Z,51.259556
2022-12-08T00:32:20.080Z,51.259563
2022-12-08T00:33:19.998Z,51.259552
2022-12-08T00:34:20.006Z,51.259541
2022-12-08T00:35:19.985Z,51.259621
2022-12-08T00:36:19.967Z,51.259617
2022-12-08T00:37:19.961Z,51.259617
2022-12-08T00:38:19.949Z,51.259552
2022-12-08T00:39:19.968Z,51.259689
2022-12-08T00:40:19.938Z,51.259708
2022-12-08T00:41:19.934Z,51.259613
2022-12-08T00:42:19.926Z,51.259640
2022-12-08T00:43:19.912Z,51.259644
2022-12-08T00:44:19.922Z,51.259438
2022-12-08T00:45:19.900Z,51.259659
2022-12-08T00:46:19.922Z,51.259644
2022-12-08T00:47:24.489Z,51.259632
2022-12-08T00:48:20.873Z,51.259628
2022-12-08T00:49:19.883Z,51.259651
2022-12-08T00:50:19.853Z,51.259674
2022-12-08T00:51:20.566Z,51.259621
2022-12-08T00:52:19.833Z,51.259602
2022-12-08T00:53:19.823Z,51.259563
2022-12-08T00:54:19.838Z,51.259537
2022-12-08T00:55:19.808Z,51.259510
2022-12-08T00:56:19.795Z,51.259537
2022-12-08T00:57:19.791Z,51.259602
2022-12-08T00:58:19.798Z,51.259670
2022-12-08T00:59:19.799Z,51.259598
2022-12-08T01:00:19.772Z,51.259624
2022-12-08T01:01:19.950Z,51.259571
2022-12-08T01:02:19.757Z,51.259560
2022-12-08T01:03:19.834Z,51.259552
2022-12-08T01:04:19.760Z,51.259525
2022-12-08T01:05:19.736Z,51.259533
2022-12-08T01:06:19.725Z,51.259499
2022-12-08T01:07:19.709Z,51.259583
2022-12-08T01:08:19.734Z,51.259567
2022-12-08T01:09:19.719Z,51.259510
2022-12-08T01:10:19.684Z,51.259594
2022-12-08T01:11:19.672Z,51.259575
2022-12-08T01:12:19.660Z,51.259560
2022-12-08T01:13:19.660Z,51.259563
2022-12-08T01:14:19.674Z,51.259552
2022-12-08T01:15:19.643Z,51.259560
2022-12-08T01:16:19.679Z,51.259544
2022-12-08T01:17:19.630Z,51.259533
2022-12-08T01:18:19.621Z,51.259483
2022-12-08T01:19:19.631Z,51.259495
2022-12-08T01:20:19.593Z,51.259590
2022-12-08T01:21:19.600Z,51.259544
2022-12-08T01:22:19.585Z,51.259583
2022-12-08T01:23:19.588Z,51.259628
2022-12-08T01:24:19.587Z,51.259495
2022-12-08T01:25:19.570Z,51.259567
2022-12-08T01:26:19.561Z,51.259598
2022-12-08T01:27:19.568Z,51.259521
2022-12-08T01:28:19.525Z,51.259525
2022-12-08T01:29:19.548Z,51.259624
2022-12-08T01:30:19.519Z,51.259560
2022-12-08T01:31:19.589Z,51.259552
2022-12-08T01:32:19.507Z,51.259487
2022-12-08T01:33:19.499Z,51.259609
2022-12-08T01:34:19.509Z,51.259678
2022-12-08T01:35:19.488Z,51.259594
2022-12-08T01:36:19.465Z,51.259678
2022-12-08T01:37:19.470Z,51.259541
2022-12-08T01:38:19.459Z,51.259655
2022-12-08T01:39:19.469Z,51.259644
2022-12-08T01:40:19.442Z,51.259644
2022-12-08T01:41:19.427Z,51.259663
2022-12-08T01:42:19.426Z,51.259533
2022-12-08T01:43:19.417Z,51.259632
2022-12-08T01:44:19.413Z,51.259514
2022-12-08T01:45:19.414Z,51.259632
2022-12-08T01:46:19.517Z,51.259621
2022-12-08T01:47:19.388Z,51.259483
2022-12-08T01:48:19.465Z,51.259495
2022-12-08T01:49:19.416Z,51.259491
2022-12-08T01:50:19.370Z,51.259529
2022-12-08T01:51:19.352Z,51.259499
2022-12-08T01:52:19.327Z,51.259510
2022-12-08T01:53:19.332Z,51.259575
2022-12-08T01:54:19.343Z,51.259552
2022-12-08T01:55:19.320Z,51.259499
2022-12-08T01:56:19.306Z,51.259552
2022-12-08T01:57:19.305Z,51.259636
2022-12-08T01:58:19.297Z,51.259647
2022-12-08T01:59:19.305Z,51.259632
2022-12-08T02:00:19.272Z,51.259632
2022-12-08T02:01:19.342Z,51.259659
2022-12-08T02:02:19.454Z,51.259609
2022-12-08T02:03:19.250Z,51.259903
2022-12-08T02:04:19.280Z,51.259693
2022-12-08T02:05:19.243Z,51.259556
2022-12-08T02:06:19.226Z,51.259563
2022-12-08T02:07:19.223Z,51.259506
2022-12-08T02:08:19.290Z,51.259453
2022-12-08T02:09:19.226Z,51.259308
2022-12-08T02:10:19.201Z,51.259113
2022-12-08T02:11:19.188Z,51.259102
2022-12-08T02:12:19.182Z,51.259228
2022-12-08T02:13:19.179Z,51.259411
2022-12-08T02:14:19.188Z,51.259560
2022-12-08T02:15:19.160Z,51.259762
2022-12-08T02:16:19.186Z,51.259731
2022-12-08T02:17:19.150Z,51.259647
2022-12-08T02:18:19.144Z,51.259388
2022-12-08T02:19:34.534Z,51.259636
2022-12-08T02:20:21.127Z,51.259613
2022-12-08T02:21:19.115Z,51.259537
2022-12-08T02:22:19.111Z,51.259556
2022-12-08T02:23:19.090Z,51.259590
2022-12-08T02:24:19.101Z,51.259735
2022-12-08T02:25:19.080Z,51.259605
2022-12-08T02:26:19.078Z,51.259617
2022-12-08T02:27:19.078Z,51.259743
2022-12-08T02:28:19.062Z,51.259689
2022-12-08T02:29:19.076Z,51.259739
2022-12-08T02:30:19.049Z,51.259838
2022-12-08T02:31:19.112Z,51.259762
2022-12-08T02:32:19.019Z,51.259785
2022-12-08T02:33:19.025Z,51.259670
2022-12-08T02:34:19.028Z,51.259518
2022-12-08T02:35:19.001Z,51.259430
2022-12-08T02:36:18.989Z,51.259445
2022-12-08T02:37:18.986Z,51.259670
2022-12-08T02:38:18.976Z,51.259666
2022-12-08T02:39:18.985Z,51.259735
2022-12-08T02:40:18.949Z,51.259605
2022-12-08T02:41:18.947Z,51.259647
2022-12-08T02:42:18.943Z,51.259712
2022-12-08T02:43:18.936Z,51.259666
2022-12-08T02:44:18.947Z,51.259632
2022-12-08T02:45:18.922Z,51.259594
2022-12-08T02:46:18.981Z,51.259556
2022-12-08T02:47:18.913Z,51.259514
2022-12-08T02:48:18.885Z,51.259388
2022-12-08T02:49:18.906Z,51.259338
2022-12-08T02:50:18.879Z,51.259464
2022-12-08T02:51:18.884Z,51.259602
2022-12-08T02:52:18.852Z,51.259605
2022-12-08T02:53:19.857Z,51.259583
2022-12-08T02:54:18.867Z,51.259644
2022-12-08T02:55:18.837Z,51.259651
2022-12-08T02:56:18.824Z,51.259640
2022-12-08T02:57:18.817Z,51.259651
2022-12-08T02:58:18.811Z,51.259521
2022-12-08T02:59:18.832Z,51.259563
2022-12-08T03:00:18.794Z,51.259560
2022-12-08T03:01:18.852Z,51.259621
2022-12-08T03:02:18.826Z,51.259628
2022-12-08T03:03:18.778Z,51.259518
2022-12-08T03:04:18.782Z,51.259617
2022-12-08T03:05:18.756Z,51.259613
2022-12-08T03:06:18.748Z,51.259560
2022-12-08T03:07:18.762Z,51.259499
2022-12-08T03:08:18.785Z,51.259449
2022-12-08T03:09:18.751Z,51.259563
2022-12-08T03:10:18.727Z,51.259567
2022-12-08T03:11:18.796Z,51.259449
2022-12-08T03:12:18.696Z,51.259396
2022-12-08T03:13:18.693Z,51.259506
2022-12-08T03:14:19.705Z,51.259533
2022-12-08T03:15:18.673Z,51.259563
2022-12-08T03:16:18.794Z,51.259544
2022-12-08T03:17:18.655Z,51.259533
2022-12-08T03:18:18.658Z,51.259556
2022-12-08T03:19:18.648Z,51.259575
2022-12-08T03:20:18.655Z,51.259521
2022-12-08T03:21:18.631Z,51.259563
2022-12-08T03:22:18.620Z,51.259621
2022-12-08T03:23:18.623Z,51.259697
2022-12-08T03:24:18.603Z,51.259670
2022-12-08T03:25:18.605Z,51.259598
2022-12-08T03:26:18.592Z,51.259544
2022-12-08T03:27:18.574Z,51.259529
2022-12-08T03:28:18.572Z,51.259609
2022-12-08T03:29:18.579Z,51.259560
2022-12-08T03:30:18.572Z,51.259537
2022-12-08T03:31:18.606Z,51.259602
2022-12-08T03:32:18.536Z,51.259560
2022-12-08T03:33:18.535Z,51.259537
2022-12-08T03:34:18.531Z,51.259613
2022-12-08T03:35:18.529Z,51.259583
2022-12-08T03:36:18.506Z,51.259552
2022-12-08T03:37:18.493Z,51.259541
2022-12-08T03:38:18.499Z,51.259571
2022-12-08T03:39:18.477Z,51.259716
2022-12-08T03:40:18.502Z,51.259556
2022-12-08T03:41:18.479Z,51.259460
2022-12-08T03:42:18.459Z,51.259510
2022-12-08T03:43:18.453Z,51.259445
2022-12-08T03:44:18.446Z,51.259514
2022-12-08T03:45:18.464Z,51.259529
2022-12-08T03:46:18.485Z,51.259575
2022-12-08T03:47:18.411Z,51.259571
2022-12-08T03:48:18.412Z,51.259533
2022-12-08T03:49:18.402Z,51.259529
2022-12-08T03:50:18.414Z,51.259563
2022-12-08T03:51:18.392Z,51.259583
2022-12-08T03:52:18.382Z,51.259583
2022-12-08T03:53:18.372Z,51.259510
2022-12-08T03:54:18.362Z,51.259575
2022-12-08T03:55:18.358Z,51.259621
2022-12-08T03:56:18.346Z,51.259567
2022-12-08T03:57:18.344Z,51.259598
2022-12-08T03:58:18.359Z,51.259560
2022-12-08T03:59:18.323Z,51.259644
2022-12-08T04:00:18.364Z,51.259602
2022-12-08T04:01:18.385Z,51.259556
2022-12-08T04:02:18.397Z,51.259552
2022-12-08T04:03:18.327Z,51.259518
2022-12-08T04:04:18.277Z,51.259518
2022-12-08T04:05:18.293Z,51.259304
2022-12-08T04:06:18.269Z,51.259182
2022-12-08T04:07:18.247Z,51.259541
2022-12-08T04:08:18.324Z,51.259624
2022-12-08T04:09:18.262Z,51.259674
2022-12-08T04:10:18.249Z,51.259693
2022-12-08T04:11:18.220Z,51.259731
2022-12-08T04:12:18.208Z,51.259918
2022-12-08T04:13:18.204Z,51.260098
2022-12-08T04:14:18.190Z,51.259945
2022-12-08T04:15:18.208Z,51.259830
2022-12-08T04:16:18.252Z,51.259724
2022-12-08T04:17:18.178Z,51.259705
2022-12-08T04:18:18.165Z,51.259609
2022-12-08T04:19:18.167Z,51.259510
2022-12-08T04:20:18.166Z,51.259502
2022-12-08T04:21:18.139Z,51.259556
2022-12-08T04:22:18.132Z,51.259605
2022-12-08T04:23:18.120Z,51.259624
2022-12-08T04:24:18.115Z,51.259525
2022-12-08T04:25:18.225Z,51.259422
2022-12-08T04:26:18.091Z,51.259533
2022-12-08T04:27:18.087Z,51.259579
2022-12-08T04:28:18.068Z,51.259537
2022-12-08T04:29:18.084Z,51.259583
2022-12-08T04:30:18.095Z,51.259453
2022-12-08T04:31:18.075Z,51.259621
2022-12-08T04:32:18.044Z,51.259521
2022-12-08T04:33:18.041Z,51.259468
2022-12-08T04:34:18.032Z,51.259357
2022-12-08T04:35:18.041Z,51.259418
2022-12-08T04:36:18.013Z,51.259327
2022-12-08T04:37:18.004Z,51.259388
2022-12-08T04:38:17.996Z,51.259392
2022-12-08T04:39:17.985Z,51.259537
2022-12-08T04:40:17.990Z,51.259571
2022-12-08T04:41:17.966Z,51.259476
2022-12-08T04:42:17.968Z,51.259445
2022-12-08T04:43:17.961Z,51.259377
2022-12-08T04:44:17.945Z,51.259335
2022-12-08T04:45:17.955Z,51.259369
2022-12-08T04:46:17.957Z,51.259418
2022-12-08T04:47:17.990Z,51.259525
2022-12-08T04:48:17.908Z,51.259548
2022-12-08T04:49:17.895Z,51.259506
2022-12-08T04:50:17.921Z,51.259453
2022-12-08T04:51:17.888Z,51.259396
2022-12-08T04:52:17.868Z,51.259438
2022-12-08T04:53:17.868Z,51.259525
2022-12-08T04:54:17.855Z,51.259502
2022-12-08T04:55:17.866Z,51.259453
2022-12-08T04:56:17.841Z,51.259468
2022-12-08T04:57:17.829Z,51.259392
2022-12-08T04:58:17.821Z,51.259537
2022-12-08T04:59:17.813Z,51.259426
2022-12-08T05:00:17.817Z,51.259624
2022-12-08T05:01:17.853Z,51.259537
2022-12-08T05:02:17.884Z,51.259495
2022-12-08T05:03:17.776Z,51.259445
2022-12-08T05:04:17.755Z,51.259357
2022-12-08T05:05:17.803Z,51.259380
2022-12-08T05:06:17.759Z,51.259384
2022-12-08T05:07:17.741Z,51.259468
2022-12-08T05:08:17.756Z,51.259441
2022-12-08T05:09:17.730Z,51.259449
2022-12-08T05:10:17.738Z,51.259464
2022-12-08T05:11:17.716Z,51.259460
2022-12-08T05:12:17.702Z,51.259384
2022-12-08T05:13:17.705Z,51.259487
2022-12-08T05:14:17.696Z,51.259636
2022-12-08T05:15:17.710Z,51.259506
2022-12-08T05:16:17.783Z,51.259426
2022-12-08T05:17:17.669Z,51.259453
2022-12-08T05:18:17.656Z,51.259430
2022-12-08T05:19:17.668Z,51.259373
2022-12-08T05:20:17.655Z,51.259441
2022-12-08T05:21:17.630Z,51.259560
2022-12-08T05:22:17.623Z,51.259533
2022-12-08T05:23:17.613Z,51.259510
2022-12-08T05:24:17.610Z,51.259518
2022-12-08T05:25:17.618Z,51.259537
2022-12-08T05:26:17.583Z,51.259613
2022-12-08T05:27:17.579Z,51.259441
2022-12-08T05:28:40.751Z,51.259491
2022-12-08T05:29:19.582Z,51.259583
2022-12-08T05:30:17.577Z,51.259636
2022-12-08T05:31:17.581Z,51.259533
2022-12-08T05:32:17.532Z,51.259544
2022-12-08T05:33:17.533Z,51.259563
2022-12-08T05:34:17.527Z,51.259590
2022-12-08T05:35:17.536Z,51.259598
2022-12-08T05:36:17.516Z,51.259563
2022-12-08T05:37:17.527Z,51.259533
2022-12-08T05:38:17.501Z,51.259480
2022-12-08T05:39:17.478Z,51.259533
2022-12-08T05:40:17.498Z,51.259583
2022-12-08T05:41:17.471Z,51.259514
2022-12-08T05:42:23.163Z,51.259628
2022-12-08T05:43:19.453Z,51.259575
2022-12-08T05:44:17.447Z,51.259628
2022-12-08T05:45:17.461Z,51.259602
2022-12-08T05:46:17.518Z,51.259609
2022-12-08T05:47:17.425Z,51.259537
2022-12-08T05:48:17.402Z,51.259502
2022-12-08T05:49:17.410Z,51.259583
2022-12-08T05:50:17.426Z,51.259663
2022-12-08T05:51:17.394Z,51.259575
2022-12-08T05:52:17.371Z,51.259598
2022-12-08T05:53:17.383Z,51.259533
2022-12-08T05:54:17.369Z,51.259495
2022-12-08T05:55:17.383Z,51.259594
2022-12-08T05:56:17.356Z,51.259624
2022-12-08T05:57:17.343Z,51.259628
2022-12-08T05:58:17.330Z,51.259632
2022-12-08T05:59:17.329Z,51.259598
2022-12-08T06:00:17.325Z,51.259567
2022-12-08T06:01:17.313Z,51.259605
2022-12-08T06:02:17.492Z,51.259418
2022-12-08T06:03:17.371Z,51.259403
2022-12-08T06:04:17.278Z,51.259487
2022-12-08T06:05:17.297Z,51.259480
2022-12-08T06:06:17.269Z,51.259621
2022-12-08T06:07:17.263Z,51.259579
2022-12-08T06:08:17.344Z,51.259514
2022-12-08T06:09:17.253Z,51.259514
2022-12-08T06:10:17.258Z,51.259510
2022-12-08T06:11:17.234Z,51.259605
2022-12-08T06:12:17.242Z,51.259697
2022-12-08T06:13:17.218Z,51.259632
2022-12-08T06:14:17.220Z,51.259563
2022-12-08T06:15:17.213Z,51.259552
2022-12-08T06:16:17.213Z,51.259502
2022-12-08T06:17:17.172Z,51.259487
2022-12-08T06:18:17.169Z,51.259510
2022-12-08T06:19:17.163Z,51.259602
2022-12-08T06:20:17.180Z,51.259579
2022-12-08T06:21:17.146Z,51.259602
2022-12-08T06:22:17.138Z,51.259506
2022-12-08T06:23:17.129Z,51.259552
2022-12-08T06:24:17.125Z,51.259567
2022-12-08T06:25:17.127Z,51.259602
2022-12-08T06:26:17.105Z,51.259583
2022-12-08T06:27:17.097Z,51.259659
2022-12-08T06:28:17.099Z,51.259666
2022-12-08T06:29:17.078Z,51.259666
2022-12-08T06:30:17.092Z,51.259583
2022-12-08T06:31:17.228Z,51.259632
2022-12-08T06:32:17.141Z,51.259556
2022-12-08T06:33:17.054Z,51.259556
2022-12-08T06:34:17.052Z,51.259586
2022-12-08T06:35:17.045Z,51.259506
2022-12-08T06:36:17.024Z,51.259533
2022-12-08T06:37:17.025Z,51.259521
2022-12-08T06:38:17.007Z,51.259552
2022-12-08T06:39:16.986Z,51.259598
2022-12-08T06:40:17.013Z,51.259552
2022-12-08T06:41:16.981Z,51.259583
2022-12-08T06:42:16.969Z,51.259548
2022-12-08T06:43:16.963Z,51.259575
2022-12-08T06:44:16.967Z,51.259583
2022-12-08T06:45:16.963Z,51.259628
2022-12-08T06:46:17.087Z,51.259586
2022-12-08T06:47:17.839Z,51.259548
2022-12-08T07:08:59.054Z,51.259438
2022-12-08T07:09:59.061Z,51.259491
2022-12-08T07:10:59.054Z,51.259365
2022-12-08T07:11:59.036Z,51.259438
2022-12-08T07:12:59.023Z,51.259678
2022-12-08T07:13:59.009Z,51.259575
2022-12-08T07:14:59.007Z,51.259548
2022-12-08T07:15:59.008Z,51.259605
2022-12-08T07:16:59.057Z,51.259674
2022-12-08T07:18:00.212Z,51.259647
2022-12-08T07:18:58.987Z,51.259567
2022-12-08T07:19:58.977Z,51.259521
2022-12-08T07:20:58.966Z,51.259460
2022-12-08T07:21:58.954Z,51.259487
2022-12-08T07:22:58.932Z,51.259583
2022-12-08T07:23:58.913Z,51.259579
2022-12-08T07:24:58.923Z,51.259609
2022-12-08T07:25:58.920Z,51.259609
2022-12-08T07:26:58.887Z,51.259464
2022-12-08T07:27:58.907Z,51.259571
2022-12-08T07:28:58.887Z,51.259541
2022-12-08T07:29:58.856Z,51.259499
2022-12-08T07:30:58.915Z,51.259586
2022-12-08T07:31:58.844Z,51.259548
2022-12-08T07:32:59.869Z,51.259644
2022-12-08T07:33:58.824Z,51.259586
2022-12-08T07:34:58.823Z,51.259624
2022-12-08T07:35:58.828Z,51.259686
2022-12-08T07:36:58.809Z,51.259647
2022-12-08T07:37:58.798Z,51.259697
2022-12-08T07:38:58.810Z,51.259781
2022-12-08T07:39:58.786Z,51.259708
2022-12-08T07:40:58.781Z,51.259686
2022-12-08T07:41:58.781Z,51.259682
2022-12-08T07:42:58.774Z,51.259697
2022-12-08T07:43:58.758Z,51.259674
2022-12-08T07:44:58.754Z,51.259624
2022-12-08T07:45:58.792Z,51.259609
2022-12-08T07:46:58.735Z,51.259750
2022-12-08T07:47:58.724Z,51.259972
2022-12-08T07:48:58.701Z,51.259789
2022-12-08T07:49:58.692Z,51.259644
2022-12-08T07:50:58.705Z,51.259487
2022-12-08T07:51:58.685Z,51.259556
2022-12-08T07:52:58.668Z,51.259605
2022-12-08T07:53:58.646Z,51.259789
2022-12-08T07:54:58.666Z,51.259659
2022-12-08T07:55:58.648Z,51.259605
2022-12-08T07:56:58.637Z,51.259449
2022-12-08T07:57:58.619Z,51.259441
2022-12-08T07:58:58.605Z,51.259415
2022-12-08T07:59:58.608Z,51.259369
2022-12-08T08:00:58.827Z,51.259354
2022-12-08T08:02:22.399Z,51.259346
2022-12-08T08:03:00.643Z,51.259319
2022-12-08T08:03:58.580Z,51.259335
2022-12-08T08:04:58.620Z,51.259354
2022-12-08T08:05:58.559Z,51.259407
2022-12-08T08:06:58.535Z,51.259388
2022-12-08T08:07:58.649Z,51.259323
2022-12-08T08:08:58.528Z,51.259239
2022-12-08T08:09:58.496Z,51.259323
2022-12-08T08:10:58.523Z,51.259327
2022-12-08T08:12:28.991Z,51.259266
2022-12-08T08:13:00.480Z,51.259384
2022-12-08T08:13:58.500Z,51.259342
2022-12-08T08:14:58.464Z,51.259342
2022-12-08T08:15:58.571Z,51.259407
2022-12-08T08:16:58.634Z,51.259434
2022-12-08T08:17:58.440Z,51.259495
2022-12-08T08:18:58.478Z,51.259426
2022-12-08T08:19:58.443Z,51.259464
2022-12-08T08:21:06.615Z,51.259487
2022-12-08T08:21:59.411Z,51.259476
2022-12-08T08:22:58.473Z,51.259480
2022-12-08T08:23:58.407Z,51.259472
2022-12-08T08:24:58.373Z,51.259544
2022-12-08T08:25:58.379Z,51.259514
2022-12-08T08:26:58.379Z,51.259464
2022-12-08T08:27:58.345Z,51.259575
2022-12-08T08:28:58.342Z,51.259495
2022-12-08T08:29:58.332Z,51.259449
2022-12-08T08:30:58.364Z,51.259583
2022-12-08T08:31:58.339Z,51.259579
2022-12-08T08:32:58.346Z,51.259571
2022-12-08T08:33:58.289Z,51.259575
2022-12-08T08:34:58.282Z,51.259476
2022-12-08T08:35:58.288Z,51.259510
2022-12-08T08:36:58.357Z,51.259415
2022-12-08T08:37:58.283Z,51.259426
2022-12-08T08:38:58.292Z,51.259548
2022-12-08T08:39:58.234Z,51.259548
2022-12-08T08:40:58.259Z,51.259483
2022-12-08T08:41:58.210Z,51.259575
2022-12-08T08:42:58.206Z,51.259628
2022-12-08T08:43:58.243Z,51.259579
2022-12-08T08:44:58.213Z,51.259651
2022-12-08T08:45:58.236Z,51.259541
2022-12-08T08:46:58.224Z,51.259605
2022-12-08T08:47:58.157Z,51.259533
2022-12-08T08:48:58.139Z,51.259506
2022-12-08T08:49:58.142Z,51.259552
2022-12-08T08:50:58.147Z,51.259483
2022-12-08T08:51:58.116Z,51.259514
2022-12-08T08:52:58.111Z,51.259468
2022-12-08T08:53:58.127Z,51.259533
2022-12-08T08:54:58.122Z,51.259525
2022-12-08T08:55:58.096Z,51.259472
2022-12-08T08:56:58.087Z,51.259396
2022-12-08T08:57:58.082Z,51.259434
2022-12-08T08:58:58.050Z,51.259506
2022-12-08T08:59:58.037Z,51.259506
2022-12-08T09:00:58.053Z,51.259567
2022-12-08T09:01:58.084Z,51.259529
2022-12-08T09:02:58.015Z,51.259476
2022-12-08T09:03:58.233Z,51.259407
2022-12-08T09:04:58.051Z,51.259445
2022-12-08T09:05:58.096Z,51.259487
2022-12-08T09:06:57.972Z,51.259506
2022-12-08T09:07:58.016Z,51.259510
2022-12-08T09:08:57.956Z,51.259544
2022-12-08T09:10:01.590Z,51.259502
2022-12-08T09:10:57.938Z,51.259510
2022-12-08T09:11:57.937Z,51.259514
2022-12-08T09:12:57.912Z,51.259502
2022-12-08T09:13:57.945Z,51.259533
2022-12-08T09:14:57.888Z,51.259533
2022-12-08T09:15:57.950Z,51.259514
2022-12-08T09:16:57.889Z,51.259525
2022-12-08T09:17:57.866Z,51.259575
2022-12-08T09:18:57.871Z,51.259575
2022-12-08T09:19:57.840Z,51.259583
2022-12-08T09:20:57.840Z,51.259571
2022-12-08T09:21:57.836Z,51.259563
2022-12-08T09:22:57.809Z,51.259548
2022-12-08T09:23:57.803Z,51.259445
2022-12-08T09:24:57.788Z,51.259552
2022-12-08T09:25:57.780Z,51.259514
2022-12-08T09:26:57.798Z,51.259514
2022-12-08T09:27:57.767Z,51.259583
2022-12-08T09:28:57.772Z,51.259621
2022-12-08T09:29:57.738Z,51.259590
2022-12-08T09:30:57.778Z,51.259506
2022-12-08T09:31:57.851Z,51.259575
2022-12-08T09:32:57.725Z,51.259521
2022-12-08T09:33:57.695Z,51.259552
2022-12-08T09:34:57.695Z,51.259533
2022-12-08T09:35:57.680Z,51.259563
2022-12-08T09:36:57.720Z,51.259521
2022-12-08T09:37:57.664Z,51.259571
2022-12-08T09:38:57.637Z,51.259544
2022-12-08T09:39:57.637Z,51.259541
2022-12-08T09:40:57.632Z,51.259563
2022-12-08T09:41:57.650Z,51.259495
2022-12-08T09:42:57.606Z,51.259468
2022-12-08T09:43:57.596Z,51.259510
2022-12-08T09:44:57.593Z,51.259483
2022-12-08T09:45:57.588Z,51.259502
2022-12-08T09:46:57.642Z,51.259506
2022-12-08T09:47:57.561Z,51.259438
2022-12-08T09:48:57.557Z,51.259464
2022-12-08T09:49:57.545Z,51.259518
2022-12-08T09:50:57.529Z,51.259468
2022-12-08T09:51:57.539Z,51.259464
2022-12-08T09:52:57.514Z,51.259476
2022-12-08T09:53:57.495Z,51.259487
2022-12-08T09:54:57.498Z,51.259521
2022-12-08T09:55:57.512Z,51.259560
2022-12-08T09:56:57.494Z,51.259575
2022-12-08T09:57:57.462Z,51.259480
2022-12-08T09:58:57.457Z,51.259529
2022-12-08T09:59:57.459Z,51.259556
2022-12-08T10:00:57.448Z,51.259518
2022-12-08T10:01:57.535Z,51.259472
2022-12-08T10:02:57.446Z,51.259548
2022-12-08T10:03:57.413Z,51.259518
2022-12-08T10:04:57.492Z,51.259460
2022-12-08T10:05:57.389Z,51.259430
2022-12-08T10:06:57.391Z,51.259560
2022-12-08T10:07:57.410Z,51.259445
2022-12-08T10:08:57.364Z,51.259457
2022-12-08T10:09:57.344Z,51.259670
2022-12-08T10:10:57.350Z,51.259590
2022-12-08T10:11:57.356Z,51.259518
2022-12-08T10:12:57.319Z,51.259544
2022-12-08T10:13:57.306Z,51.259506
2022-12-08T10:14:57.301Z,51.259567
2022-12-08T10:15:57.490Z,51.259537
2022-12-08T10:16:57.338Z,51.259605
2022-12-08T10:17:57.254Z,51.259575
2022-12-08T10:18:57.270Z,51.259594
2022-12-08T10:19:57.262Z,51.259571
2022-12-08T10:20:57.244Z,51.259487
2022-12-08T10:21:57.285Z,51.259438
2022-12-08T10:22:57.240Z,51.259449
2022-12-08T10:23:57.232Z,51.259560
2022-12-08T10:24:57.205Z,51.259651
2022-12-08T10:25:57.180Z,51.259499
2022-12-08T10:26:57.203Z,51.259491
2022-12-08T10:27:57.169Z,51.259556
2022-12-08T10:28:57.171Z,51.259499
2022-12-08T10:29:57.149Z,51.259487
2022-12-08T10:30:57.239Z,51.259499
2022-12-08T10:31:57.185Z,51.259476
2022-12-08T10:32:57.132Z,51.259571
2022-12-08T10:33:57.118Z,51.259613
2022-12-08T10:34:57.098Z,51.259544
2022-12-08T10:35:57.105Z,51.259556
2022-12-08T10:36:57.101Z,51.259495
2022-12-08T10:37:57.065Z,51.259605
2022-12-08T10:38:57.066Z,51.259655
2022-12-08T10:39:57.050Z,51.259495
2022-12-08T10:40:57.039Z,51.259533
2022-12-08T10:41:57.066Z,51.259529
2022-12-08T10:42:57.028Z,51.259525
2022-12-08T10:43:57.024Z,51.259586
2022-12-08T10:44:57.037Z,51.259537
2022-12-08T10:45:56.984Z,51.259575
2022-12-08T10:46:57.041Z,51.259514
2022-12-08T10:47:56.960Z,51.259613
2022-12-08T10:48:56.961Z,51.259705
2022-12-08T10:49:56.938Z,51.259674
2022-12-08T10:50:56.935Z,51.259586
2022-12-08T10:51:56.943Z,51.259480
2022-12-08T10:52:56.933Z,51.259464
2022-12-08T10:53:56.904Z,51.259537
2022-12-08T10:54:56.914Z,51.259621
2022-12-08T10:55:56.899Z,51.259567
2022-12-08T10:56:56.897Z,51.259556
2022-12-08T10:57:56.867Z,51.259525
2022-12-08T10:58:56.866Z,51.259514
2022-12-08T10:59:56.847Z,51.259602
2022-12-08T11:00:56.928Z,51.259689
2022-12-08T11:01:57.014Z,51.259624
2022-12-08T11:02:56.866Z,51.259552
2022-12-08T11:03:56.811Z,51.259613
2022-12-08T11:04:56.784Z,51.259586
2022-12-08T11:05:56.778Z,51.259571
2022-12-08T11:06:56.787Z,51.259571
2022-12-08T11:07:56.782Z,51.259590
2022-12-08T11:08:56.749Z,51.259712
2022-12-08T11:09:56.752Z,51.259666
2022-12-08T11:10:56.740Z,51.259571
2022-12-08T11:11:56.742Z,51.259647
2022-12-08T11:12:56.703Z,51.259575
2022-12-08T11:13:56.681Z,51.259529
2022-12-08T11:14:56.674Z,51.259659
2022-12-08T11:15:56.690Z,51.259598
2022-12-08T11:16:56.719Z,51.259495
2022-12-08T11:17:57.789Z,51.259468
2022-12-08T11:18:57.634Z,51.259918
2022-12-08T11:19:56.624Z,51.259651
2022-12-08T11:20:56.620Z,51.259598
2022-12-08T11:21:56.611Z,51.259541
2022-12-08T11:22:56.624Z,51.259663
2022-12-08T11:23:56.580Z,51.259586
2022-12-08T11:24:56.568Z,51.259598
2022-12-08T11:25:56.570Z,51.259510
2022-12-08T11:26:56.579Z,51.259453
2022-12-08T11:27:56.547Z,51.259586
2022-12-08T11:28:56.541Z,51.259430
2022-12-08T11:29:56.538Z,51.259594
2022-12-08T11:30:56.513Z,51.259830
2022-12-08T11:31:56.550Z,51.259609
2022-12-08T11:32:56.476Z,51.259724
2022-12-08T11:33:56.470Z,51.259670
2022-12-08T11:34:56.463Z,51.259636
2022-12-08T11:35:56.457Z,51.259708
2022-12-08T11:36:56.448Z,51.259628
2022-12-08T11:38:07.835Z,51.259563
2022-12-08T11:38:57.422Z,51.259449
2022-12-08T11:39:56.404Z,51.259655
2022-12-08T11:40:56.407Z,51.259769
2022-12-08T11:41:56.412Z,51.259720
2022-12-08T11:42:56.370Z,51.259632
2022-12-08T11:43:56.362Z,51.259518
2022-12-08T11:44:57.356Z,51.259571